createdAt,value
2018-04-11T00:02:18.277Z,94924.02
2018-04-11T00:04:45.778Z,94913.91
2018-04-11T00:07:13.325Z,94921.15
2018-04-11T00:09:40.804Z,94904.80
2018-04-11T00:12:08.354Z,94901.88
2018-04-11T00:14:35.862Z,94903.85
2018-04-11T00:17:03.363Z,94904.22
2018-04-11T00:19:30.903Z,94893.10
2018-04-11T00:21:58.410Z,94906.97
2018-04-11T00:24:25.947Z,94897.80
2018-04-11T00:26:53.452Z,94893.13
2018-04-11T00:29:21.008Z,94893.73
2018-04-11T00:31:48.551Z,94891.10
2018-04-11T00:34:16.104Z,94890.06
2018-04-11T00:36:43.607Z,94881.71
2018-04-11T00:39:11.154Z,94873.11
2018-04-11T00:41:38.686Z,94900.62
2018-04-11T00:44:06.240Z,94873.96
2018-04-11T00:46:33.747Z,94869.16
2018-04-11T00:49:01.257Z,94876.33
2018-04-11T00:51:28.760Z,94876.81
2018-04-11T00:53:56.294Z,94877.86
2018-04-11T00:56:23.791Z,94874.22
2018-04-11T00:58:51.332Z,94875.19
2018-04-11T01:01:18.902Z,94858.80
2018-04-11T01:03:46.413Z,94874.96
2018-04-11T01:06:13.936Z,94881.16
2018-04-11T01:08:41.485Z,94881.56
2018-04-11T01:11:09.032Z,94876.68
2018-04-11T01:13:36.570Z,94879.98
2018-04-11T01:16:04.082Z,94883.27
2018-04-11T01:18:31.629Z,94883.27
2018-04-11T01:20:59.175Z,94864.89
2018-04-11T01:23:26.675Z,94864.09
2018-04-11T01:25:54.176Z,94858.38
2018-04-11T01:28:21.721Z,94869.48
2018-04-11T01:30:49.298Z,94870.27
2018-04-11T01:33:16.814Z,94873.39
2018-04-11T01:35:44.312Z,94872.85
2018-04-11T01:38:11.824Z,94868.77
2018-04-11T01:40:39.375Z,94875.15
2018-04-11T01:43:06.892Z,94874.92
2018-04-11T01:45:34.403Z,94880.03
2018-04-11T01:48:01.916Z,94880.11
2018-04-11T01:50:29.420Z,94885.38
2018-04-11T01:52:56.936Z,94886.22
2018-04-11T01:55:24.446Z,94883.13
2018-04-11T01:57:52.003Z,94878.97
2018-04-11T02:00:19.559Z,94880.94
2018-04-11T02:02:47.073Z,94883.27
2018-04-11T02:05:14.576Z,94887.75
2018-04-11T02:07:42.088Z,94882.48
2018-04-11T02:10:09.594Z,94882.75
2018-04-11T02:12:37.095Z,94883.84
2018-04-11T02:15:04.604Z,94894.08
2018-04-11T02:17:32.111Z,94883.92
2018-04-11T02:19:59.616Z,94884.03
2018-04-11T02:22:27.123Z,94894.64
2018-04-11T02:24:54.677Z,94896.10
2018-04-11T02:27:22.203Z,94898.15
2018-04-11T02:29:49.707Z,94887.59
2018-04-11T02:32:17.267Z,94897.41
2018-04-11T02:34:44.776Z,94901.19
2018-04-11T02:37:12.331Z,94898.81
2018-04-11T02:39:39.853Z,94887.53
2018-04-11T02:42:07.389Z,94890.24
2018-04-11T02:44:34.900Z,94889.66
2018-04-11T02:47:02.451Z,94891.52
2018-04-11T02:49:29.962Z,94902.31
2018-04-11T02:51:57.468Z,94897.33
2018-04-11T02:54:24.980Z,94883.50
2018-04-11T02:56:52.532Z,94888.63
2018-04-11T02:59:20.087Z,94872.73
2018-04-11T03:01:47.639Z,94881.89
2018-04-11T03:04:16.478Z,94870.34
2018-04-11T03:06:43.996Z,94872.42
2018-04-11T03:09:11.545Z,94880.88
2018-04-11T03:11:39.088Z,94874.65
2018-04-11T03:14:06.590Z,94870.98
2018-04-11T03:16:34.104Z,94874.61
2018-04-11T03:19:01.620Z,94874.50
2018-04-11T03:21:29.119Z,94872.91
2018-04-11T03:23:56.668Z,94874.46
2018-04-11T03:26:24.207Z,94859.13
2018-04-11T03:28:51.707Z,94859.91
2018-04-11T03:31:19.271Z,94868.28
2018-04-11T03:33:46.782Z,94865.50
2018-04-11T03:36:14.346Z,94877.33
2018-04-11T03:38:41.855Z,94871.80
2018-04-11T03:41:09.360Z,94866.92
2018-04-11T03:43:36.867Z,94869.94
2018-04-11T03:46:04.362Z,94868.98
2018-04-11T03:48:31.869Z,94874.10
2018-04-11T03:50:59.415Z,94873.20
2018-04-11T03:53:26.959Z,94871.63
2018-04-11T03:55:55.773Z,94870.50
2018-04-11T03:58:23.311Z,94867.87
2018-04-11T04:00:50.856Z,94864.45
2018-04-11T04:03:18.431Z,94865.85
2018-04-11T04:05:45.984Z,94873.65
2018-04-11T04:08:13.489Z,94877.84
2018-04-11T04:10:40.991Z,94876.66
2018-04-11T04:13:08.535Z,94885.64
2018-04-11T04:15:47.727Z,94887.55
2018-04-11T04:18:27.161Z,94887.84
2018-04-11T04:20:54.709Z,94882.58
2018-04-11T04:23:22.222Z,94881.59
2018-04-11T04:25:49.754Z,94894.63
2018-04-11T04:28:17.298Z,94899.34
2018-04-11T04:30:44.849Z,94900.84
2018-04-11T04:33:12.359Z,94902.79
2018-04-11T04:35:39.895Z,94907.19
2018-04-11T04:38:07.413Z,94904.47
2018-04-11T04:40:34.968Z,94911.03
2018-04-11T04:43:02.537Z,94902.37
2018-04-11T04:45:30.079Z,94910.73
2018-04-11T04:47:57.592Z,94907.27
2018-04-11T04:50:25.215Z,94918.89
2018-04-11T04:52:52.728Z,94906.64
2018-04-11T04:55:20.270Z,94916.45
2018-04-11T04:57:47.782Z,94921.13
2018-04-11T05:00:15.350Z,94924.34
2018-04-11T05:02:42.863Z,94918.03
2018-04-11T05:05:10.369Z,94918.81
2018-04-11T05:07:37.974Z,94897.81
2018-04-11T05:10:05.483Z,94920.14
2018-04-11T05:12:32.995Z,94929.66
2018-04-11T05:15:00.505Z,94927.91
2018-04-11T05:17:28.021Z,94938.14
2018-04-11T05:19:55.528Z,94934.42
2018-04-11T05:22:23.083Z,94932.48
2018-04-11T05:24:50.627Z,94930.95
2018-04-11T05:27:18.135Z,94931.55
2018-04-11T05:29:45.702Z,94919.66
2018-04-11T05:32:13.212Z,94920.69
2018-04-11T05:34:40.720Z,94937.02
2018-04-11T05:37:08.263Z,94934.52
2018-04-11T05:39:35.769Z,94930.02
2018-04-11T05:42:03.270Z,94931.56
2018-04-11T05:44:30.772Z,94921.11
2018-04-11T05:46:58.273Z,94925.95
2018-04-11T05:49:25.772Z,94925.56
2018-04-11T05:51:53.319Z,94925.37
2018-04-11T05:54:20.845Z,94929.30
2018-04-11T05:56:48.374Z,94921.86
2018-04-11T05:59:15.896Z,94921.98
2018-04-11T06:01:43.395Z,94920.95
2018-04-11T06:04:10.947Z,94939.36
2018-04-11T06:06:38.461Z,94940.20
2018-04-11T06:09:05.973Z,94928.23
2018-04-11T06:11:33.488Z,94920.38
2018-04-11T06:14:01.004Z,94923.25
2018-04-11T06:16:28.513Z,94933.55
2018-04-11T06:18:56.052Z,94940.20
2018-04-11T06:21:23.625Z,94939.14
2018-04-11T06:23:51.143Z,94947.98
2018-04-11T06:26:18.739Z,94951.84
2018-04-11T06:28:46.290Z,94953.34
2018-04-11T06:31:13.856Z,94946.34
2018-04-11T06:33:41.364Z,94959.66
2018-04-11T06:36:08.896Z,94958.18
2018-04-11T06:38:36.438Z,94955.04
2018-04-11T06:41:03.943Z,94962.80
2018-04-11T06:43:31.491Z,94962.36
2018-04-11T06:45:59.003Z,94957.80
2018-04-11T06:48:26.520Z,94960.11
2018-04-11T06:50:54.072Z,94961.01
2018-04-11T06:53:21.590Z,94974.89
2018-04-11T06:55:49.232Z,94975.66
2018-04-11T06:58:16.803Z,94961.00
2018-04-11T07:00:44.324Z,94966.97
2018-04-11T07:03:11.888Z,94956.39
2018-04-11T07:05:39.405Z,94941.96
2018-04-11T07:08:06.912Z,94972.30
2018-04-11T07:10:34.431Z,94967.12
2018-04-11T07:13:01.943Z,94963.34
2018-04-11T07:15:29.500Z,94962.50
2018-04-11T07:17:57.013Z,94967.96
2018-04-11T07:20:24.520Z,94968.00
2018-04-11T07:22:52.065Z,94956.27
2018-04-11T07:25:19.579Z,94949.03
2018-04-11T07:27:47.132Z,94951.32
2018-04-11T07:30:14.696Z,94952.27
2018-04-11T07:32:42.214Z,94946.89
2018-04-11T07:35:09.759Z,94945.64
2018-04-11T07:37:37.281Z,94955.83
2018-04-11T07:40:04.914Z,94956.68
2018-04-11T07:42:32.412Z,94950.41
2018-04-11T07:44:59.960Z,94939.46
2018-04-11T07:47:27.852Z,94938.23
2018-04-11T07:49:55.441Z,94927.84
2018-04-11T07:52:22.951Z,94928.47
2018-04-11T07:54:50.460Z,94934.19
2018-04-11T07:57:17.986Z,94936.80
2018-04-11T07:59:45.490Z,94934.95
2018-04-11T08:02:13.036Z,94936.41
2018-04-11T08:04:40.582Z,94937.44
2018-04-11T08:07:08.124Z,94938.37
2018-04-11T08:09:35.629Z,94944.03
2018-04-11T08:12:03.178Z,94949.83
2018-04-11T08:14:30.703Z,94949.50
2018-04-11T08:16:58.248Z,94934.77
2018-04-11T08:19:25.787Z,94936.45
2018-04-11T08:21:53.303Z,94937.68
2018-04-11T08:24:20.849Z,94924.70
2018-04-11T08:26:48.358Z,94926.28
2018-04-11T08:29:15.908Z,94940.72
2018-04-11T08:31:43.542Z,94940.84
2018-04-11T08:34:11.103Z,94936.95
2018-04-11T08:36:38.661Z,94929.44
2018-04-11T08:39:06.221Z,94933.71
2018-04-11T08:41:33.730Z,94942.86
2018-04-11T08:44:01.285Z,94948.31
2018-04-11T08:46:28.802Z,94951.94
2018-04-11T08:48:56.380Z,94951.52
2018-04-11T08:51:23.888Z,94942.80
2018-04-11T08:53:51.413Z,94950.47
2018-04-11T08:56:18.990Z,94951.52
2018-04-11T08:58:46.500Z,94948.08
2018-04-11T09:01:14.057Z,94951.80
2018-04-11T09:03:41.574Z,94936.60
2018-04-11T09:06:09.175Z,94928.57
2018-04-11T09:08:36.701Z,94928.05
2018-04-11T09:11:04.248Z,94921.55
2018-04-11T09:13:31.757Z,94910.80
2018-04-11T09:15:59.267Z,94903.78
2018-04-11T09:18:26.919Z,94892.50
2018-04-11T09:20:54.461Z,94897.83
2018-04-11T09:23:21.969Z,94897.36
2018-04-11T09:25:49.519Z,94896.87
2018-04-11T09:28:17.032Z,94898.66
2018-04-11T09:30:44.580Z,94892.41
2018-04-11T09:33:12.145Z,94891.30
2018-04-11T09:35:39.676Z,94888.58
2018-04-11T09:38:07.187Z,94900.72
2018-04-11T09:40:34.743Z,94895.47
2018-04-11T09:43:02.259Z,94886.34
2018-04-11T09:45:29.779Z,94889.39
2018-04-11T09:47:57.323Z,94887.80
2018-04-11T09:50:24.878Z,94872.63
2018-04-11T09:52:52.391Z,94875.17
2018-04-11T09:55:19.949Z,94873.87
2018-04-11T09:57:47.470Z,94871.59
2018-04-11T10:00:14.986Z,94863.00
2018-04-11T10:02:42.531Z,94868.75
2018-04-11T10:05:10.056Z,94866.97
2018-04-11T10:07:37.554Z,94865.63
2018-04-11T10:10:06.034Z,94868.38
2018-04-11T10:12:33.583Z,94852.84
2018-04-11T10:15:01.159Z,94856.47
2018-04-11T10:17:28.714Z,94857.47
2018-04-11T10:19:56.274Z,94851.81
2018-04-11T10:22:23.818Z,94842.06
2018-04-11T10:24:51.405Z,94836.45
2018-04-11T10:27:18.959Z,94819.02
2018-04-11T10:29:46.465Z,94821.81
2018-04-11T10:32:14.006Z,94821.31
2018-04-11T10:34:41.528Z,94817.66
2018-04-11T10:37:09.031Z,94804.45
2018-04-11T10:39:36.590Z,94802.42
2018-04-11T10:42:05.539Z,94795.45
2018-04-11T10:44:33.048Z,94797.48
2018-04-11T10:47:00.569Z,94792.17
2018-04-11T10:49:28.081Z,94792.02
2018-04-11T10:51:55.598Z,94785.52
2018-04-11T10:54:23.240Z,94793.83
2018-04-11T10:56:50.739Z,94774.66
2018-04-11T10:59:18.254Z,94777.09
2018-04-11T11:01:45.809Z,94778.33
2018-04-11T11:04:13.310Z,94776.98
2018-04-11T11:06:40.858Z,94764.39
2018-04-11T11:09:08.410Z,94769.28
2018-04-11T11:11:35.912Z,94768.23
2018-04-11T11:14:03.418Z,94764.19
2018-04-11T11:16:36.523Z,94762.59
2018-04-11T11:19:05.288Z,94767.86
2018-04-11T11:21:32.803Z,94763.54
2018-04-11T11:24:01.540Z,94764.37
2018-04-11T11:26:29.047Z,94763.17
2018-04-11T11:28:56.547Z,94768.49
2018-04-11T11:31:24.091Z,94773.47
2018-04-11T11:33:51.598Z,94764.01
2018-04-11T11:36:19.161Z,94759.41
2018-04-11T11:38:46.734Z,94759.37
2018-04-11T11:41:14.235Z,94757.05
2018-04-11T11:43:41.759Z,94756.83
2018-04-11T11:46:09.314Z,94745.89
2018-04-11T11:48:36.815Z,94755.08
2018-04-11T11:51:04.327Z,94745.90
2018-04-11T11:53:31.878Z,94742.27
2018-04-11T11:56:00.219Z,94736.78
2018-04-11T11:58:27.783Z,94732.60
2018-04-11T12:00:55.337Z,94726.39
2018-04-11T12:03:22.845Z,94731.81
2018-04-11T12:05:50.400Z,94726.08
2018-04-11T12:08:17.914Z,94728.25
2018-04-11T12:10:45.457Z,94721.83
2018-04-11T12:13:12.956Z,94717.29
2018-04-11T12:15:40.513Z,94725.19
2018-04-11T12:18:08.060Z,94705.75
2018-04-11T12:20:35.568Z,94717.66
2018-04-11T12:23:03.085Z,94717.23
2018-04-11T12:25:30.610Z,94713.29
2018-04-11T12:27:59.507Z,94713.45
2018-04-11T12:30:27.072Z,94710.53
2018-04-11T12:32:54.643Z,94720.31
2018-04-11T12:35:22.155Z,94707.92
2018-04-11T12:37:49.664Z,94713.38
2018-04-11T12:40:17.178Z,94707.11
2018-04-11T12:42:44.716Z,94694.27
2018-04-11T12:45:12.235Z,94690.92
2018-04-11T12:47:39.744Z,94680.83
2018-04-11T12:50:07.336Z,94688.83
2018-04-11T12:52:34.848Z,94687.30
2018-04-11T12:55:02.399Z,94678.93
2018-04-11T12:57:29.911Z,94678.45
2018-04-11T12:59:57.454Z,94670.35
2018-04-11T13:02:25.000Z,94667.52
2018-04-11T13:04:52.517Z,94671.34
2018-04-11T13:07:20.038Z,94667.47
2018-04-11T13:09:47.626Z,94668.16
2018-04-11T13:12:15.136Z,94656.69
2018-04-11T13:14:42.644Z,94655.42
2018-04-11T13:17:10.162Z,94650.23
2018-04-11T13:19:37.730Z,94642.64
2018-04-11T13:22:05.304Z,94645.32
2018-04-11T13:24:32.809Z,94647.92
2018-04-11T13:27:00.312Z,94643.16
2018-04-11T13:29:27.846Z,94647.56
2018-04-11T13:31:55.357Z,94640.17
2018-04-11T13:34:22.868Z,94637.69
2018-04-11T13:36:50.396Z,94634.75
2018-04-11T13:39:17.926Z,94629.00
2018-04-11T13:41:45.494Z,94632.08
2018-04-11T13:44:13.007Z,94611.83
2018-04-11T13:46:42.032Z,94620.48
2018-04-11T13:49:09.564Z,94628.66
2018-04-11T13:51:37.072Z,94615.00
2018-04-11T13:54:04.583Z,94629.01
2018-04-11T13:56:32.097Z,94614.30
2018-04-11T13:58:59.647Z,94604.16
2018-04-11T14:01:27.172Z,94620.45
2018-04-11T14:03:54.678Z,94625.84
2018-04-11T14:06:22.228Z,94621.02
2018-04-11T14:08:49.745Z,94625.73
2018-04-11T14:11:17.243Z,94620.20
2018-04-11T14:13:44.760Z,94625.35
2018-04-11T14:16:12.266Z,94628.33
2018-04-11T14:18:39.772Z,94622.34
2018-04-11T14:21:07.367Z,94628.22
2018-04-11T14:23:34.881Z,94620.60
2018-04-11T14:26:02.488Z,94635.39
2018-04-11T14:28:30.040Z,94630.09
2018-04-11T14:30:57.609Z,94631.81
2018-04-11T14:33:25.112Z,94626.89
2018-04-11T14:35:52.674Z,94632.12
2018-04-11T14:38:20.193Z,94624.67
2018-04-11T14:40:47.750Z,94616.23
2018-04-11T14:43:15.241Z,94618.20
2018-04-11T14:45:42.792Z,94624.34
2018-04-11T14:48:10.348Z,94622.54
2018-04-11T14:50:37.930Z,94619.27
2018-04-11T14:53:05.434Z,94620.08
2018-04-11T14:55:32.987Z,94606.47
2018-04-11T14:58:00.492Z,94630.91
2018-04-11T15:00:28.047Z,94634.70
2018-04-11T15:02:55.592Z,94626.42
2018-04-11T15:05:23.107Z,94625.48
2018-04-11T15:07:51.492Z,94626.36
2018-04-11T15:10:19.001Z,94624.84
2018-04-11T15:12:46.539Z,94606.72
2018-04-11T15:15:14.093Z,94618.29
2018-04-11T15:17:41.611Z,94634.27
2018-04-11T15:20:10.372Z,94634.23
2018-04-11T15:22:37.886Z,94631.84
2018-04-11T15:25:05.405Z,94637.30
2018-04-11T15:27:32.949Z,94628.48
2018-04-11T15:30:01.005Z,94634.56
2018-04-11T15:32:28.547Z,94638.43
2018-04-11T15:34:56.042Z,94637.20
2018-04-11T15:37:23.563Z,94634.06
2018-04-11T15:39:51.068Z,94616.64
2018-04-11T15:42:18.580Z,94636.34
2018-04-11T15:44:46.139Z,94641.67
2018-04-11T15:47:13.644Z,94638.00
2018-04-11T15:49:41.198Z,94645.30
2018-04-11T15:52:08.743Z,94640.77
2018-04-11T15:54:36.293Z,94641.40
2018-04-11T15:57:03.802Z,94641.92
2018-04-11T15:59:32.118Z,94664.46
2018-04-11T16:02:00.999Z,94630.93
2018-04-11T16:04:28.504Z,94636.48
2018-04-11T16:06:56.003Z,94648.68
2018-04-11T16:09:23.520Z,94634.08
2018-04-11T16:11:51.117Z,94632.69
2018-04-11T16:14:18.612Z,94635.47
2018-04-11T16:16:46.160Z,94640.37
2018-04-11T16:19:13.682Z,94639.30
2018-04-11T16:21:41.231Z,94642.41
2018-04-11T16:24:08.730Z,94639.05
2018-04-11T16:26:36.230Z,94642.14
2018-04-11T16:29:03.727Z,94627.23
2018-04-11T16:31:31.231Z,94637.41
2018-04-11T16:33:58.727Z,94652.57
2018-04-11T16:36:26.231Z,94645.50
2018-04-11T16:38:53.779Z,94649.22
2018-04-11T16:41:21.299Z,94650.26
2018-04-11T16:43:48.847Z,94659.20
2018-04-11T16:46:16.360Z,94649.59
2018-04-11T16:48:43.863Z,94658.58
2018-04-11T16:51:11.407Z,94663.33
2018-04-11T16:53:38.906Z,94660.01
2018-04-11T16:56:06.450Z,94673.11
2018-04-11T16:58:33.960Z,94666.02
2018-04-11T17:01:01.534Z,94668.06
2018-04-11T17:03:29.063Z,94676.23
2018-04-11T17:05:56.614Z,94675.19
2018-04-11T17:08:24.156Z,94684.78
2018-04-11T17:10:51.679Z,94685.98
2018-04-11T17:13:19.223Z,94680.42
2018-04-11T17:15:46.724Z,94685.78
2018-04-11T17:18:14.231Z,94689.88
2018-04-11T17:20:53.602Z,94695.83
2018-04-11T17:23:32.837Z,94699.38
2018-04-11T17:26:12.209Z,94713.22
2018-04-11T17:28:51.598Z,94720.17
2018-04-11T17:31:24.015Z,94723.41
2018-04-11T17:33:51.557Z,94724.94
2018-04-11T17:36:19.064Z,94730.88
2018-04-11T17:38:48.167Z,94747.82
2018-04-11T17:41:15.683Z,94752.91
2018-04-11T17:43:43.191Z,94752.59
2018-04-11T17:46:10.733Z,94753.09
2018-04-11T17:48:38.248Z,94748.45
2018-04-11T17:51:05.792Z,94769.73
2018-04-11T17:53:33.320Z,94770.92
2018-04-11T17:56:00.817Z,94774.26
2018-04-11T17:58:28.322Z,94783.05
2018-04-11T18:00:55.864Z,94786.78
2018-04-11T18:03:23.399Z,94795.91
2018-04-11T18:05:50.978Z,94806.25
2018-04-11T18:08:18.543Z,94800.00
2018-04-11T18:10:46.076Z,94817.25
2018-04-11T18:13:13.619Z,94810.65
2018-04-11T18:15:41.182Z,94808.44
2018-04-11T18:18:08.695Z,94823.52
2018-04-11T18:20:36.200Z,94813.80
2018-04-11T18:23:03.719Z,94821.57
2018-04-11T18:25:31.259Z,94823.34
2018-04-11T18:27:58.767Z,94834.14
2018-04-11T18:30:26.323Z,94831.42
2018-04-11T18:32:53.962Z,94831.04
2018-04-11T18:35:21.459Z,94819.75
2018-04-11T18:37:48.963Z,94834.97
2018-04-11T18:40:16.508Z,94842.04
2018-04-11T18:42:44.019Z,94836.43
2018-04-11T18:45:11.568Z,94852.83
2018-04-11T18:47:39.068Z,94846.56
2018-04-11T18:50:06.567Z,94853.39
2018-04-11T18:52:34.067Z,94852.44
2018-04-11T18:55:01.627Z,94861.21
2018-04-11T18:57:29.144Z,94856.53
2018-04-11T18:59:56.654Z,94854.97
2018-04-11T19:02:24.986Z,94856.30
2018-04-11T19:04:52.537Z,94860.98
2018-04-11T19:07:20.057Z,94868.75
2018-04-11T19:09:47.563Z,94875.95
2018-04-11T19:12:15.079Z,94878.86
2018-04-11T19:14:42.584Z,94880.66
2018-04-11T19:17:10.082Z,94878.08
2018-04-11T19:19:37.598Z,94882.35
2018-04-11T19:22:05.992Z,94877.84
2018-04-11T19:24:33.500Z,94881.71
2018-04-11T19:27:01.008Z,94879.59
2018-04-11T19:29:28.615Z,94883.03
2018-04-11T19:31:56.112Z,94878.34
2018-04-11T19:34:23.631Z,94888.66
2018-04-11T19:36:51.181Z,94887.08
2018-04-11T19:39:19.455Z,94890.03
2018-04-11T19:41:47.019Z,94890.81
2018-04-11T19:44:14.553Z,94889.38
2018-04-11T19:46:42.118Z,94892.31
2018-04-11T19:49:09.693Z,94890.20
2018-04-11T19:51:37.219Z,94892.70
2018-04-11T19:54:04.737Z,94897.55
2018-04-11T19:56:32.273Z,94897.98
2018-04-11T19:58:59.802Z,94896.80
2018-04-11T20:01:27.378Z,94899.52
2018-04-11T20:03:55.015Z,94906.90
2018-04-11T20:06:22.468Z,94907.56
2018-04-11T20:08:50.020Z,94908.66
2018-04-11T20:11:17.597Z,94909.58
2018-04-11T20:13:45.088Z,94922.50
2018-04-11T20:16:12.601Z,94897.33
2018-04-11T20:18:40.103Z,94928.34
2018-04-11T20:21:07.689Z,94908.09
2018-04-11T20:23:35.222Z,94902.82
2018-04-11T20:26:02.816Z,94891.88
2018-04-11T20:28:30.328Z,94914.86
2018-04-11T20:30:57.889Z,94907.13
2018-04-11T20:33:25.415Z,94903.86
2018-04-11T20:35:52.916Z,94901.50
2018-04-11T20:38:20.438Z,94902.28
2018-04-11T20:40:47.998Z,94904.18
2018-04-11T20:43:15.556Z,94908.48
2018-04-11T20:45:43.076Z,94908.45
2018-04-11T20:48:10.619Z,94900.72
2018-04-11T20:50:38.115Z,94914.08
2018-04-11T20:53:05.624Z,94909.80
2018-04-11T20:55:33.171Z,94909.19
2018-04-11T20:58:00.691Z,94917.76
2018-04-11T21:00:28.236Z,94914.94
2018-04-11T21:02:55.739Z,94916.36
2018-04-11T21:05:23.281Z,94903.66
2018-04-11T21:07:50.840Z,94915.08
2018-04-11T21:10:18.343Z,94918.02
2018-04-11T21:12:45.889Z,94920.88
2018-04-11T21:15:13.399Z,94916.58
2018-04-11T21:17:40.953Z,94918.33
2018-04-11T21:20:08.496Z,94914.64
2018-04-11T21:22:36.042Z,94915.83
2018-04-11T21:25:03.554Z,94921.45
2018-04-11T21:27:31.140Z,94916.80
2018-04-11T21:29:58.664Z,94918.77
2018-04-11T21:32:26.205Z,94916.83
2018-04-11T21:34:53.711Z,94920.92
2018-04-11T21:37:21.256Z,94919.34
2018-04-11T21:39:48.857Z,94919.16
2018-04-11T21:42:16.371Z,94919.34
2018-04-11T21:44:43.884Z,94918.51
2018-04-11T21:47:11.392Z,94920.83
2018-04-11T21:49:38.948Z,94925.84
2018-04-11T21:52:06.501Z,94920.39
2018-04-11T21:54:34.058Z,94918.86
2018-04-11T21:57:01.893Z,94923.98
2018-04-11T21:59:29.421Z,94924.25
2018-04-11T22:01:56.967Z,94931.93
2018-04-11T22:04:24.510Z,94934.78
2018-04-11T22:06:52.013Z,94936.31
2018-04-11T22:09:19.576Z,94940.97
2018-04-11T22:11:47.125Z,94940.11
2018-04-11T22:14:14.641Z,94937.89
2018-04-11T22:16:42.184Z,94938.67
2018-04-11T22:19:09.694Z,94937.98
2018-04-11T22:21:37.259Z,94940.64
2018-04-11T22:24:04.788Z,94941.94
2018-04-11T22:26:32.282Z,94944.73
2018-04-11T22:28:59.869Z,94947.39
2018-04-11T22:31:27.390Z,94951.45
2018-04-11T22:33:54.940Z,94943.53
2018-04-11T22:36:22.497Z,94945.06
2018-04-11T22:38:50.012Z,94933.75
2018-04-11T22:41:17.523Z,94946.26
2018-04-11T22:43:45.033Z,94878.22
2018-04-11T22:46:12.550Z,94951.58
2018-04-11T22:48:40.064Z,94947.65
2018-04-11T22:51:07.604Z,94935.75
2018-04-11T22:53:35.144Z,94956.37
2018-04-11T22:56:02.654Z,94952.17
2018-04-11T22:58:30.168Z,94941.63
2018-04-11T23:00:57.679Z,94939.48
2018-04-11T23:03:25.191Z,94946.43
2018-04-11T23:05:52.739Z,94951.64
2018-04-11T23:08:20.255Z,94943.71
2018-04-11T23:10:47.875Z,94947.22
2018-04-11T23:13:15.377Z,94944.51
2018-04-11T23:15:42.897Z,94949.52
2018-04-11T23:18:10.416Z,94954.42
2018-04-11T23:20:37.984Z,94951.05
2018-04-11T23:23:05.504Z,94956.11
2018-04-11T23:25:33.011Z,94944.76
2018-04-11T23:28:00.522Z,94944.11
2018-04-11T23:30:28.078Z,94941.78
2018-04-11T23:32:55.583Z,94943.77
2018-04-11T23:35:23.151Z,94933.72
2018-04-11T23:37:50.660Z,94937.52
2018-04-11T23:40:18.179Z,94943.20
2018-04-11T23:42:45.688Z,94941.05
2018-04-11T23:45:13.186Z,94943.73
2018-04-11T23:47:40.695Z,94942.66
2018-04-11T23:50:08.247Z,94945.68
2018-04-11T23:52:35.756Z,94941.50
2018-04-11T23:55:03.272Z,94951.77
2018-04-11T23:57:30.822Z,94948.07
2018-04-11T23:59:58.328Z,94948.77
